createdAt,value
2023-02-03T00:01:44.869Z,4.70
2023-02-03T00:04:11.571Z,6.00
2023-02-03T00:06:38.197Z,3.80
2023-02-03T00:09:04.935Z,3.80
2023-02-03T00:11:32.165Z,3.80
2023-02-03T00:13:58.743Z,3.70
2023-02-03T00:16:25.531Z,3.80
2023-02-03T00:18:52.256Z,3.70
2023-02-03T00:21:18.949Z,3.70
2023-02-03T00:23:45.580Z,3.80
2023-02-03T00:26:14.061Z,3.70
2023-02-03T00:28:40.947Z,3.70
2023-02-03T00:31:14.938Z,3.60
2023-02-03T00:33:41.555Z,6.80
2023-02-03T00:36:08.610Z,4.40
2023-02-03T00:38:35.240Z,3.60
2023-02-03T00:41:01.920Z,3.60
2023-02-03T00:43:28.561Z,3.60
2023-02-03T00:45:55.351Z,3.60
2023-02-03T00:48:21.981Z,3.60
2023-02-03T00:50:48.710Z,3.60
2023-02-03T00:53:15.413Z,6.40
2023-02-03T00:55:45.036Z,3.60
2023-02-03T00:58:11.831Z,3.60
2023-02-03T01:00:38.574Z,3.60
2023-02-03T01:03:05.258Z,3.50
2023-02-03T01:05:31.892Z,3.60
2023-02-03T01:07:58.540Z,3.50
2023-02-03T01:10:25.529Z,3.50
2023-02-03T01:12:52.348Z,3.60
2023-02-03T01:15:18.954Z,3.60
2023-02-03T01:17:45.650Z,3.50
2023-02-03T01:20:13.901Z,4.10
2023-02-03T01:22:40.566Z,3.60
2023-02-03T01:25:07.455Z,3.60
2023-02-03T01:27:34.149Z,3.60
2023-02-03T01:30:00.838Z,5.40
2023-02-03T01:32:27.844Z,3.60
2023-02-03T01:34:54.510Z,5.20
2023-02-03T01:37:21.216Z,3.60
2023-02-03T01:39:47.785Z,3.60
2023-02-03T01:42:14.932Z,3.70
2023-02-03T01:44:46.476Z,4.20
2023-02-03T01:47:19.053Z,3.60
2023-02-03T01:49:48.999Z,3.60
2023-02-03T01:52:16.201Z,3.60
2023-02-03T01:54:44.228Z,3.70
2023-02-03T01:57:13.773Z,3.70
2023-02-03T01:59:40.487Z,3.70
2023-02-03T02:02:07.468Z,3.70
2023-02-03T02:04:37.215Z,3.80
2023-02-03T02:07:04.126Z,5.20
2023-02-03T02:09:30.690Z,6.80
2023-02-03T02:11:57.319Z,3.70
2023-02-03T02:14:23.949Z,3.70
2023-02-03T02:16:58.205Z,3.80
2023-02-03T02:19:31.076Z,3.80
2023-02-03T02:22:15.999Z,3.70
2023-02-03T02:25:01.374Z,3.70
2023-02-03T02:27:57.153Z,3.80
2023-02-03T02:30:24.026Z,3.80
2023-02-03T02:33:10.646Z,3.80
2023-02-03T02:35:37.286Z,3.80
2023-02-03T02:38:03.979Z,3.80
2023-02-03T02:40:39.877Z,3.80
2023-02-03T02:43:11.445Z,3.90
2023-02-03T02:45:44.330Z,3.90
2023-02-03T02:48:20.990Z,3.90
2023-02-03T02:50:48.553Z,3.90
2023-02-03T02:53:15.619Z,3.90
2023-02-03T02:55:43.412Z,3.80
2023-02-03T02:58:11.897Z,3.80
2023-02-03T03:00:40.787Z,7.20
2023-02-03T03:03:12.194Z,3.80
2023-02-03T03:05:40.888Z,3.80
2023-02-03T03:08:09.254Z,3.80
2023-02-03T03:10:36.866Z,3.80
2023-02-03T03:13:06.016Z,3.80
2023-02-03T03:15:33.788Z,3.80
2023-02-03T03:18:04.899Z,3.70
2023-02-03T03:20:32.858Z,3.80
2023-02-03T03:23:01.170Z,3.70
2023-02-03T03:25:31.694Z,3.80
2023-02-03T03:28:03.204Z,3.80
2023-02-03T03:30:32.891Z,3.70
2023-02-03T03:32:59.635Z,3.70
2023-02-03T03:35:30.640Z,3.60
2023-02-03T03:38:03.935Z,3.60
2023-02-03T03:40:33.531Z,4.00
2023-02-03T03:43:02.744Z,3.60
2023-02-03T03:45:38.650Z,3.70
2023-02-03T03:48:17.368Z,3.60
2023-02-03T03:50:47.396Z,3.60
2023-02-03T03:53:15.267Z,3.70
2023-02-03T03:55:43.141Z,3.70
2023-02-03T03:58:12.287Z,3.70
2023-02-03T04:00:39.823Z,3.70
2023-02-03T04:03:11.563Z,3.70
2023-02-03T04:05:39.456Z,3.70
2023-02-03T04:08:06.193Z,3.80
2023-02-03T04:10:34.472Z,4.40
2023-02-03T04:13:01.119Z,3.80
2023-02-03T04:15:28.062Z,3.80
2023-02-03T04:17:56.973Z,3.80
2023-02-03T04:20:24.382Z,3.90
2023-02-03T04:22:51.173Z,3.90
2023-02-03T04:25:17.739Z,6.80
2023-02-03T04:27:44.378Z,3.90
2023-02-03T04:30:11.592Z,3.90
2023-02-03T04:32:38.230Z,3.80
2023-02-03T04:35:05.652Z,3.90
2023-02-03T04:37:32.329Z,3.90
2023-02-03T04:39:58.934Z,3.90
2023-02-03T04:42:25.757Z,3.90
2023-02-03T04:44:52.404Z,3.90
2023-02-03T04:47:19.215Z,3.90
2023-02-03T04:49:46.174Z,3.80
2023-02-03T04:52:13.349Z,3.80
2023-02-03T04:54:39.991Z,3.80
2023-02-03T04:57:06.755Z,3.90
2023-02-03T04:59:33.381Z,3.90
2023-02-03T05:02:01.877Z,3.80
2023-02-03T05:04:28.512Z,3.80
2023-02-03T05:06:56.384Z,3.80
2023-02-03T05:09:23.570Z,3.80
2023-02-03T05:11:50.224Z,5.40
2023-02-03T05:14:16.846Z,3.80
2023-02-03T05:16:43.664Z,3.90
2023-02-03T05:19:10.307Z,3.80
2023-02-03T05:21:36.918Z,3.90
2023-02-03T05:24:06.936Z,3.80
2023-02-03T05:26:34.395Z,3.80
2023-02-03T05:29:01.268Z,3.80
2023-02-03T05:31:27.991Z,3.80
2023-02-03T05:33:54.750Z,3.80
2023-02-03T05:36:21.403Z,3.80
2023-02-03T05:38:48.050Z,5.70
2023-02-03T05:41:33.477Z,3.80
2023-02-03T05:44:00.126Z,3.80
2023-02-03T05:46:26.730Z,3.80
2023-02-03T05:48:53.297Z,3.80
2023-02-03T05:51:19.935Z,3.80
2023-02-03T05:53:46.664Z,3.80
2023-02-03T05:56:13.249Z,3.80
2023-02-03T05:58:39.874Z,3.90
2023-02-03T06:01:06.525Z,3.90
2023-02-03T06:03:33.112Z,3.90
2023-02-03T06:05:59.695Z,3.90
2023-02-03T06:08:28.650Z,3.50
2023-02-03T06:10:59.647Z,3.80
2023-02-03T06:13:26.286Z,3.90
2023-02-03T06:15:52.903Z,3.90
2023-02-03T06:18:19.569Z,3.90
2023-02-03T06:20:46.140Z,1.60
2023-02-03T06:23:12.775Z,3.90
2023-02-03T06:25:39.335Z,3.90
2023-02-03T06:28:05.976Z,3.90
2023-02-03T06:30:32.654Z,3.90
2023-02-03T06:32:59.289Z,3.90
2023-02-03T06:35:25.913Z,3.90
2023-02-03T06:37:52.591Z,3.80
2023-02-03T06:40:19.177Z,3.80
2023-02-03T06:42:49.301Z,6.30
2023-02-03T06:45:16.113Z,3.80
2023-02-03T06:47:43.265Z,3.70
2023-02-03T06:50:10.858Z,3.70
2023-02-03T06:52:37.516Z,3.70
2023-02-03T06:55:04.602Z,3.70
2023-02-03T06:57:31.429Z,3.70
2023-02-03T06:59:58.076Z,3.70
2023-02-03T07:02:24.689Z,3.70
2023-02-03T07:04:51.330Z,3.70
2023-02-03T07:07:17.955Z,3.70
2023-02-03T07:09:44.628Z,3.70
2023-02-03T07:12:11.346Z,3.70
2023-02-03T07:14:39.475Z,3.70
2023-02-03T07:17:06.896Z,3.70
2023-02-03T07:19:33.675Z,3.70
2023-02-03T07:22:00.281Z,3.70
2023-02-03T07:24:26.887Z,3.70
2023-02-03T07:26:53.676Z,3.70
2023-02-03T07:29:20.263Z,3.70
2023-02-03T07:31:46.970Z,3.70
2023-02-03T07:34:13.590Z,3.60
2023-02-03T07:36:41.366Z,3.70
2023-02-03T07:39:07.979Z,3.80
2023-02-03T07:41:34.560Z,3.70
2023-02-03T07:44:01.145Z,5.50
2023-02-03T07:46:28.025Z,3.80
2023-02-03T07:48:54.697Z,3.80
2023-02-03T07:51:21.311Z,3.80
2023-02-03T07:53:47.942Z,3.80
2023-02-03T07:56:14.669Z,3.80
2023-02-03T07:58:41.314Z,3.80
2023-02-03T08:01:10.215Z,5.70
2023-02-03T08:03:36.862Z,3.90
2023-02-03T08:06:03.551Z,3.80
2023-02-03T08:08:31.102Z,3.80
2023-02-03T08:10:57.670Z,4.70
2023-02-03T08:13:24.385Z,3.90
2023-02-03T08:15:51.024Z,3.90
2023-02-03T08:18:17.641Z,3.90
2023-02-03T08:20:44.217Z,3.90
2023-02-03T08:23:10.836Z,4.00
2023-02-03T08:25:37.430Z,4.00
2023-02-03T08:28:04.149Z,4.00
2023-02-03T08:30:31.048Z,4.00
2023-02-03T08:32:57.895Z,4.10
2023-02-03T08:35:24.605Z,4.00
2023-02-03T08:37:51.252Z,4.10
2023-02-03T08:40:17.910Z,4.20
2023-02-03T08:42:44.514Z,5.50
2023-02-03T08:45:11.587Z,4.20
2023-02-03T08:47:39.248Z,4.30
2023-02-03T08:50:07.435Z,6.20
2023-02-03T08:52:33.977Z,4.20
2023-02-03T08:55:00.614Z,4.30
2023-02-03T08:57:27.230Z,4.40
2023-02-03T08:59:54.607Z,4.50
2023-02-03T09:02:21.213Z,4.50
2023-02-03T09:04:49.147Z,4.50
2023-02-03T09:07:16.812Z,7.20
2023-02-03T09:09:43.508Z,4.60
2023-02-03T09:12:12.254Z,4.60
2023-02-03T09:14:39.087Z,4.60
2023-02-03T09:17:08.228Z,4.50
2023-02-03T09:19:36.573Z,7.40
2023-02-03T09:22:03.934Z,4.60
2023-02-03T09:24:31.012Z,4.70
2023-02-03T09:26:57.629Z,4.70
2023-02-03T09:29:24.279Z,4.80
2023-02-03T09:31:53.862Z,4.80
2023-02-03T09:34:20.946Z,4.90
2023-02-03T09:36:47.693Z,7.60
2023-02-03T09:39:14.860Z,4.90
2023-02-03T09:41:51.067Z,5.00
2023-02-03T09:44:22.562Z,5.00
2023-02-03T09:46:53.318Z,5.10
2023-02-03T09:49:23.925Z,5.10
2023-02-03T09:51:50.580Z,5.00
2023-02-03T09:54:20.442Z,5.20
2023-02-03T09:56:52.374Z,5.30
2023-02-03T09:59:19.579Z,8.30
2023-02-03T10:01:56.449Z,5.40
2023-02-03T10:04:27.355Z,5.40
2023-02-03T10:07:02.882Z,5.50
2023-02-03T10:09:39.783Z,5.50
2023-02-03T10:12:25.434Z,5.50
2023-02-03T10:15:17.749Z,5.50
2023-02-03T10:17:48.307Z,5.60
2023-02-03T10:20:29.315Z,7.90
2023-02-03T10:22:58.268Z,5.70
2023-02-03T10:25:37.468Z,5.80
2023-02-03T10:28:09.582Z,5.80
2023-02-03T10:30:45.346Z,5.80
2023-02-03T10:33:13.481Z,7.00
2023-02-03T10:35:50.918Z,5.90
2023-02-03T10:38:37.818Z,5.90
2023-02-03T10:41:04.800Z,6.00
2023-02-03T10:43:47.562Z,6.00
2023-02-03T10:46:14.884Z,6.10
2023-02-03T10:48:41.538Z,6.20
2023-02-03T10:51:22.484Z,6.10
2023-02-03T10:53:52.850Z,6.00
2023-02-03T10:56:39.720Z,6.00
2023-02-03T10:59:07.381Z,6.10
2023-02-03T11:01:39.963Z,6.00
2023-02-03T11:04:07.398Z,6.00
2023-02-03T11:06:35.183Z,6.00
2023-02-03T11:09:02.172Z,6.00
2023-02-03T11:11:31.526Z,6.10
2023-02-03T11:14:04.046Z,6.20
2023-02-03T11:16:32.249Z,6.30
2023-02-03T11:19:02.822Z,6.30
2023-02-03T11:21:32.158Z,6.40
2023-02-03T11:24:03.589Z,6.40
2023-02-03T11:26:50.541Z,6.40
2023-02-03T11:29:19.400Z,6.50
2023-02-03T11:31:48.775Z,8.70
2023-02-03T11:34:17.248Z,6.60
2023-02-03T11:36:43.823Z,6.70
2023-02-03T11:39:10.555Z,6.70
2023-02-03T11:41:39.037Z,6.60
2023-02-03T11:44:13.185Z,6.60
2023-02-03T11:46:40.308Z,6.60
2023-02-03T11:49:19.316Z,6.60
2023-02-03T11:51:53.009Z,6.60
2023-02-03T11:54:19.592Z,6.60
2023-02-03T11:56:52.366Z,6.50
2023-02-03T11:59:20.949Z,6.40
2023-02-03T12:01:58.927Z,6.40
2023-02-03T12:04:25.498Z,6.40
2023-02-03T12:07:01.387Z,6.40
2023-02-03T12:09:41.137Z,6.30
2023-02-03T12:12:07.747Z,6.20
2023-02-03T12:14:42.256Z,6.20
2023-02-03T12:17:17.122Z,7.80
2023-02-03T12:20:02.022Z,7.30
2023-02-03T12:22:48.503Z,6.00
2023-02-03T12:25:30.119Z,6.00
2023-02-03T12:27:56.724Z,6.00
2023-02-03T12:30:33.120Z,6.10
2023-02-03T12:33:06.537Z,6.00
2023-02-03T12:35:38.825Z,6.00
2023-02-03T12:38:06.883Z,6.00
2023-02-03T12:40:33.444Z,6.10
2023-02-03T12:43:06.097Z,6.00
2023-02-03T12:45:34.714Z,6.00
2023-02-03T12:48:05.414Z,6.00
2023-02-03T12:50:46.016Z,6.00
2023-02-03T12:53:21.840Z,6.00
2023-02-03T12:55:51.818Z,6.00
2023-02-03T12:58:22.017Z,6.90
2023-02-03T13:00:51.691Z,6.00
2023-02-03T13:03:31.716Z,6.00
2023-02-03T13:06:16.419Z,6.00
2023-02-03T13:08:46.023Z,6.00
2023-02-03T13:11:18.785Z,5.00
2023-02-03T13:13:51.079Z,6.00
2023-02-03T13:16:21.196Z,6.00
2023-02-03T13:18:54.292Z,7.90
2023-02-03T13:21:20.966Z,6.00
2023-02-03T13:23:48.335Z,6.10
2023-02-03T13:26:25.486Z,6.20
2023-02-03T13:29:11.034Z,6.10
2023-02-03T13:31:40.785Z,6.10
2023-02-03T13:34:13.434Z,6.20
2023-02-03T13:36:46.231Z,6.20
2023-02-03T13:39:15.836Z,6.20
2023-02-03T13:41:42.420Z,6.20
2023-02-03T13:44:13.798Z,8.20
2023-02-03T13:46:40.633Z,6.30
2023-02-03T13:49:08.691Z,6.30
2023-02-03T13:51:43.452Z,6.30
2023-02-03T13:54:20.304Z,6.30
2023-02-03T13:57:13.369Z,6.30
2023-02-03T13:59:41.799Z,6.30
2023-02-03T14:02:24.279Z,3.80
2023-02-03T14:04:53.799Z,6.20
2023-02-03T14:07:23.779Z,6.30
2023-02-03T14:10:09.264Z,6.30
2023-02-03T14:12:37.173Z,6.30
2023-02-03T14:15:19.221Z,6.30
2023-02-03T14:17:46.486Z,6.30
2023-02-03T14:20:25.033Z,6.30
2023-02-03T14:22:53.446Z,6.30
2023-02-03T14:25:20.809Z,6.30
2023-02-03T14:27:48.436Z,6.20
2023-02-03T14:30:16.821Z,6.20
2023-02-03T14:32:50.807Z,6.20
2023-02-03T14:35:19.279Z,6.20
2023-02-03T14:37:52.527Z,6.20
2023-02-03T14:40:43.056Z,6.10
2023-02-03T14:43:27.903Z,6.10
2023-02-03T14:45:54.561Z,6.10
2023-02-03T14:48:24.149Z,6.00
2023-02-03T14:51:02.798Z,6.00
2023-02-03T14:53:38.717Z,6.00
2023-02-03T14:56:16.023Z,5.90
2023-02-03T14:58:51.626Z,5.90
2023-02-03T15:01:24.361Z,5.80
2023-02-03T15:04:09.654Z,5.80
2023-02-03T15:06:37.764Z,5.80
2023-02-03T15:09:12.813Z,5.80
2023-02-03T15:11:45.683Z,5.70
2023-02-03T15:14:25.767Z,5.70
2023-02-03T15:17:11.497Z,5.70
2023-02-03T15:19:39.485Z,5.70
2023-02-03T15:22:29.411Z,5.70
2023-02-03T15:24:57.493Z,5.60
2023-02-03T15:27:28.069Z,5.70
2023-02-03T15:29:54.752Z,5.60
2023-02-03T15:32:25.575Z,5.60
2023-02-03T15:34:53.567Z,5.60
2023-02-03T15:37:20.172Z,5.60
2023-02-03T15:40:03.808Z,5.60
2023-02-03T15:42:30.640Z,5.50
2023-02-03T15:44:59.217Z,5.50
2023-02-03T15:47:29.560Z,5.50
2023-02-03T15:49:59.946Z,5.50
2023-02-03T15:52:27.441Z,8.10
2023-02-03T15:54:58.392Z,5.50
2023-02-03T15:57:33.853Z,5.50
2023-02-03T16:00:01.980Z,5.40
2023-02-03T16:02:30.860Z,5.50
2023-02-03T16:04:57.625Z,5.40
2023-02-03T16:07:24.242Z,5.50
2023-02-03T16:09:54.909Z,5.50
2023-02-03T16:12:28.741Z,5.40
2023-02-03T16:14:56.132Z,5.40
2023-02-03T16:17:27.809Z,5.50
2023-02-03T16:20:12.727Z,5.40
2023-02-03T16:22:41.048Z,5.40
2023-02-03T16:25:14.838Z,5.40
2023-02-03T16:27:44.012Z,5.40
2023-02-03T16:30:29.307Z,5.40
2023-02-03T16:33:23.899Z,7.20
2023-02-03T16:36:09.052Z,5.30
2023-02-03T16:38:54.193Z,5.30
2023-02-03T16:41:39.477Z,5.30
2023-02-03T16:44:24.557Z,5.30
2023-02-03T16:47:10.268Z,5.30
2023-02-03T16:52:20.791Z,5.20
2023-02-03T16:54:47.355Z,5.20
2023-02-03T16:57:13.929Z,5.30
2023-02-03T16:59:40.525Z,5.30
2023-02-03T17:02:07.296Z,5.30
2023-02-03T17:04:33.917Z,5.20
2023-02-03T17:07:00.560Z,5.30
2023-02-03T17:09:27.222Z,5.30
2023-02-03T17:11:54.304Z,6.30
2023-02-03T17:14:20.965Z,5.30
2023-02-03T17:16:47.675Z,5.30
2023-02-03T17:19:14.400Z,5.30
2023-02-03T17:21:41.007Z,5.30
2023-02-03T17:24:07.706Z,5.30
2023-02-03T17:26:34.590Z,5.30
2023-02-03T17:29:03.284Z,5.30
2023-02-03T17:31:30.808Z,5.30
2023-02-03T17:33:58.751Z,5.30
2023-02-03T17:36:25.479Z,5.30
2023-02-03T17:55:20.452Z,5.40
2023-02-03T17:57:47.148Z,5.30
2023-02-03T18:00:13.979Z,5.30
2023-02-03T18:02:42.528Z,5.30
2023-02-03T18:05:09.305Z,3.00
2023-02-03T18:07:35.942Z,5.30
2023-02-03T18:10:02.572Z,5.40
2023-02-03T18:12:30.016Z,5.40
2023-02-03T18:14:57.719Z,5.40
2023-02-03T18:17:24.686Z,8.30
2023-02-03T18:19:55.827Z,6.10
2023-02-03T18:22:23.103Z,5.30
2023-02-03T18:24:51.706Z,5.30
2023-02-03T18:27:18.677Z,6.20
2023-02-03T18:29:45.532Z,5.40
2023-02-03T18:32:13.030Z,5.30
2023-02-03T18:34:39.697Z,5.30
2023-02-03T18:37:06.682Z,5.30
2023-02-03T18:39:33.339Z,5.40
2023-02-03T18:42:00.209Z,5.30
2023-02-03T18:44:27.458Z,5.30
2023-02-03T18:46:54.732Z,5.30
2023-02-03T18:49:21.471Z,6.10
2023-02-03T18:51:48.102Z,5.30
2023-02-03T18:54:14.726Z,5.40
2023-02-03T18:56:41.346Z,5.30
2023-02-03T18:59:09.095Z,6.20
2023-02-03T19:01:36.406Z,5.40
2023-02-03T19:04:03.330Z,5.30
2023-02-03T19:06:31.090Z,8.00
2023-02-03T19:08:58.443Z,5.30
2023-02-03T19:11:25.409Z,7.90
2023-02-03T19:13:52.095Z,5.40
2023-02-03T19:16:18.831Z,5.40
2023-02-03T19:18:45.918Z,5.30
2023-02-03T19:21:13.204Z,5.40
2023-02-03T19:23:40.096Z,5.40
2023-02-03T19:26:06.811Z,5.40
2023-02-03T19:28:35.270Z,5.40
2023-02-03T19:31:07.442Z,5.40
2023-02-03T19:33:35.664Z,5.40
2023-02-03T19:36:02.476Z,5.40
2023-02-03T19:38:29.120Z,5.40
2023-02-03T19:40:56.026Z,5.40
2023-02-03T19:43:24.623Z,5.40
2023-02-03T19:45:51.619Z,5.40
2023-02-03T19:48:18.343Z,5.40
2023-02-03T19:50:46.608Z,5.40
2023-02-03T19:53:13.775Z,5.40
2023-02-03T19:55:42.172Z,5.40
2023-02-03T19:58:09.002Z,5.40
2023-02-03T20:00:35.633Z,5.30
2023-02-03T20:03:02.360Z,5.40
2023-02-03T20:05:29.785Z,5.30
2023-02-03T20:07:56.419Z,5.40
2023-02-03T20:10:26.215Z,5.40
2023-02-03T20:12:53.399Z,5.40
2023-02-03T20:15:20.248Z,5.30
2023-02-03T20:17:46.907Z,5.30
2023-02-03T20:20:13.551Z,5.30
2023-02-03T20:22:40.199Z,5.30
2023-02-03T20:25:07.018Z,5.40
2023-02-03T20:27:33.669Z,5.30
2023-02-03T20:30:00.267Z,5.30
2023-02-03T20:32:26.906Z,7.80
2023-02-03T20:34:53.571Z,5.30
2023-02-03T20:37:20.425Z,5.30
2023-02-03T20:39:47.050Z,5.30
2023-02-03T20:42:15.950Z,5.30
2023-02-03T20:44:43.067Z,5.30
2023-02-03T20:47:11.633Z,5.30
2023-02-03T20:49:38.298Z,5.30
2023-02-03T20:52:11.299Z,5.30
2023-02-03T20:54:37.927Z,5.30
2023-02-03T20:57:10.082Z,5.30
2023-02-03T20:59:36.757Z,5.30
2023-02-03T21:02:10.646Z,5.30
2023-02-03T21:04:55.820Z,5.30
2023-02-03T21:07:23.816Z,5.30
2023-02-03T21:09:50.525Z,7.60
2023-02-03T21:12:17.162Z,5.30
2023-02-03T21:14:44.877Z,5.30
2023-02-03T21:17:15.801Z,5.30
2023-02-03T21:19:42.609Z,5.30
2023-02-03T21:22:28.651Z,5.30
2023-02-03T21:24:59.174Z,5.30
2023-02-03T21:27:30.267Z,5.40
2023-02-03T21:29:57.835Z,5.30
2023-02-03T21:32:25.978Z,5.30
2023-02-03T21:34:52.610Z,5.40
2023-02-03T21:37:34.643Z,5.30
2023-02-03T21:40:01.269Z,5.30
2023-02-03T21:42:41.774Z,5.40
2023-02-03T21:45:14.516Z,5.40
2023-02-03T21:47:42.018Z,5.40
2023-02-03T21:50:29.531Z,7.60
2023-02-03T21:52:57.312Z,5.50
2023-02-03T21:55:23.904Z,5.60
2023-02-03T21:57:50.676Z,5.60
2023-02-03T22:00:35.730Z,5.60
2023-02-03T22:03:08.052Z,5.60
2023-02-03T22:05:37.663Z,5.80
2023-02-03T22:08:13.754Z,5.90
2023-02-03T22:10:40.299Z,6.00
2023-02-03T22:13:07.057Z,6.00
2023-02-03T22:15:33.633Z,6.00
2023-02-03T22:18:00.363Z,6.10
2023-02-03T22:20:27.015Z,6.10
2023-02-03T22:22:54.356Z,8.10
2023-02-03T22:25:20.886Z,6.10
2023-02-03T22:27:47.560Z,6.20
2023-02-03T22:30:14.782Z,6.20
2023-02-03T22:32:41.464Z,6.20
2023-02-03T22:35:10.960Z,6.20
2023-02-03T22:37:37.615Z,6.20
2023-02-03T22:40:04.451Z,6.30
2023-02-03T22:42:31.015Z,6.20
2023-02-03T22:44:57.638Z,6.20
2023-02-03T22:47:24.304Z,6.20
2023-02-03T22:49:50.867Z,6.20
2023-02-03T22:52:19.282Z,6.30
2023-02-03T22:54:45.956Z,8.10
2023-02-03T22:57:12.629Z,7.20
2023-02-03T22:59:39.314Z,9.20
2023-02-03T23:02:06.006Z,8.10
2023-02-03T23:04:32.882Z,6.30
2023-02-03T23:06:59.576Z,7.80
2023-02-03T23:09:26.280Z,6.30
2023-02-03T23:11:52.964Z,6.30
2023-02-03T23:14:19.656Z,6.30
2023-02-03T23:16:46.440Z,6.70
2023-02-03T23:19:13.091Z,6.30
2023-02-03T23:21:40.023Z,6.20
2023-02-03T23:24:07.110Z,6.20
2023-02-03T23:26:33.738Z,6.20
2023-02-03T23:29:00.394Z,6.20
2023-02-03T23:31:27.145Z,6.20
2023-02-03T23:34:12.464Z,6.20
2023-02-03T23:36:39.111Z,6.20
2023-02-03T23:39:06.567Z,6.10
2023-02-03T23:41:33.212Z,6.10
2023-02-03T23:44:00.873Z,6.10
2023-02-03T23:46:27.572Z,6.10
2023-02-03T23:48:54.313Z,6.10
2023-02-03T23:51:20.916Z,6.10
2023-02-03T23:53:47.861Z,6.20
2023-02-03T23:56:14.524Z,6.20
2023-02-03T23:58:41.267Z,6.10
